createdAt,value
2019-05-21T00:02:13.096Z,70.65
2019-05-21T00:04:37.632Z,69.86
2019-05-21T00:07:02.075Z,71.57
2019-05-21T00:09:26.646Z,70.00
2019-05-21T00:11:51.255Z,70.29
2019-05-21T00:14:15.862Z,69.77
2019-05-21T00:16:40.376Z,68.90
2019-05-21T00:19:04.945Z,69.29
2019-05-21T00:21:29.360Z,69.56
2019-05-21T00:23:53.822Z,69.62
2019-05-21T00:26:18.360Z,69.50
2019-05-21T00:28:41.678Z,69.77
2019-05-21T00:31:42.992Z,69.23
2019-05-21T00:34:44.481Z,69.35
2019-05-21T00:37:45.335Z,69.74
2019-05-21T00:40:45.963Z,70.06
2019-05-21T00:43:10.960Z,69.21
2019-05-21T00:45:35.423Z,69.30
2019-05-21T00:47:59.868Z,69.66
2019-05-21T00:50:24.347Z,69.44
2019-05-21T00:52:48.931Z,69.07
2019-05-21T00:55:13.538Z,69.72
2019-05-21T00:57:38.151Z,69.18
2019-05-21T01:00:02.784Z,69.57
2019-05-21T01:02:27.262Z,69.00
2019-05-21T01:05:00.333Z,69.11
2019-05-21T01:07:18.088Z,69.75
2019-05-21T01:09:42.571Z,68.76
2019-05-21T01:12:07.055Z,68.78
2019-05-21T01:14:31.531Z,69.66
2019-05-21T01:16:55.968Z,69.65
2019-05-21T01:19:20.555Z,69.08
2019-05-21T01:21:45.012Z,69.58
2019-05-21T01:24:09.559Z,69.15
2019-05-21T01:26:34.112Z,69.20
2019-05-21T01:28:58.714Z,69.61
2019-05-21T01:31:23.247Z,70.15
2019-05-21T01:33:47.708Z,69.34
2019-05-21T01:36:12.194Z,69.10
2019-05-21T01:38:36.648Z,69.28
2019-05-21T01:41:01.111Z,69.83
2019-05-21T01:43:25.648Z,70.58
2019-05-21T01:45:50.098Z,69.96
2019-05-21T01:48:14.625Z,69.65
2019-05-21T01:50:39.093Z,71.17
2019-05-21T01:53:03.606Z,69.91
2019-05-21T01:55:28.101Z,70.39
2019-05-21T01:57:52.574Z,69.61
2019-05-21T02:00:17.485Z,69.25
2019-05-21T02:02:42.022Z,69.25
2019-05-21T02:05:07.755Z,69.26
2019-05-21T02:07:32.211Z,68.92
2019-05-21T02:09:59.204Z,68.71
2019-05-21T02:12:23.705Z,68.74
2019-05-21T02:14:48.236Z,69.47
2019-05-21T02:17:12.728Z,68.78
2019-05-21T02:19:37.314Z,69.25
2019-05-21T02:22:01.833Z,69.04
2019-05-21T02:24:26.245Z,68.87
2019-05-21T02:26:50.719Z,68.94
2019-05-21T02:29:15.161Z,69.34
2019-05-21T02:31:39.705Z,68.66
2019-05-21T02:34:04.237Z,68.96
2019-05-21T02:36:28.838Z,69.15
2019-05-21T02:38:53.401Z,68.89
2019-05-21T02:41:18.158Z,69.07
2019-05-21T02:43:42.555Z,68.97
2019-05-21T02:46:07.185Z,70.49
2019-05-21T02:48:31.642Z,70.77
2019-05-21T02:50:56.175Z,69.65
2019-05-21T02:53:20.698Z,70.79
2019-05-21T02:55:45.354Z,69.63
2019-05-21T02:58:09.803Z,70.17
2019-05-21T03:00:39.215Z,69.99
2019-05-21T03:03:05.521Z,69.65
2019-05-21T03:05:30.121Z,70.14
2019-05-21T03:07:54.666Z,69.48
2019-05-21T03:10:19.203Z,69.12
2019-05-21T03:12:43.793Z,69.17
2019-05-21T03:15:08.717Z,69.47
2019-05-21T03:17:33.307Z,69.36
2019-05-21T03:19:58.728Z,69.01
2019-05-21T03:22:23.371Z,69.63
2019-05-21T03:24:47.919Z,69.25
2019-05-21T03:27:12.441Z,69.21
2019-05-21T03:29:36.920Z,69.29
2019-05-21T03:32:01.475Z,69.49
2019-05-21T03:34:26.052Z,69.34
2019-05-21T03:36:50.528Z,69.32
2019-05-21T03:39:19.083Z,69.41
2019-05-21T03:41:41.211Z,69.38
2019-05-21T03:44:05.681Z,69.24
2019-05-21T03:46:30.989Z,69.31
2019-05-21T03:48:55.536Z,69.22
2019-05-21T03:51:20.049Z,69.25
2019-05-21T03:53:44.519Z,69.35
2019-05-21T03:56:09.046Z,69.66
2019-05-21T03:58:33.590Z,69.44
2019-05-21T04:00:58.067Z,69.25
2019-05-21T04:03:22.600Z,69.34
2019-05-21T04:05:47.056Z,69.27
2019-05-21T04:08:11.528Z,69.35
2019-05-21T04:10:36.035Z,69.47
2019-05-21T04:13:07.299Z,69.49
2019-05-21T04:15:31.793Z,69.45
2019-05-21T04:17:57.943Z,69.56
2019-05-21T04:20:22.446Z,69.66
2019-05-21T04:22:52.975Z,69.62
2019-05-21T04:25:17.553Z,69.60
2019-05-21T04:27:42.126Z,69.66
2019-05-21T04:30:11.221Z,69.48
2019-05-21T04:32:34.106Z,69.77
2019-05-21T04:37:21.909Z,69.16
2019-05-21T04:39:46.389Z,69.22
2019-05-21T04:42:10.885Z,69.32
2019-05-21T04:44:35.371Z,69.01
2019-05-21T04:46:59.883Z,69.20
2019-05-21T04:49:24.350Z,69.47
2019-05-21T04:51:48.889Z,69.21
2019-05-21T04:54:13.368Z,69.18
2019-05-21T04:56:37.914Z,69.12
2019-05-21T04:59:02.384Z,69.05
2019-05-21T05:01:26.906Z,69.08
2019-05-21T05:03:51.365Z,69.15
2019-05-21T05:06:15.805Z,69.38
2019-05-21T05:08:40.370Z,69.36
2019-05-21T05:11:04.965Z,69.30
2019-05-21T05:13:29.456Z,69.17
2019-05-21T05:15:53.976Z,69.42
2019-05-21T05:18:18.534Z,69.26
2019-05-21T05:20:42.998Z,69.33
2019-05-21T05:23:07.503Z,69.33
2019-05-21T05:25:32.061Z,69.38
2019-05-21T05:27:56.511Z,69.02
2019-05-21T05:30:21.647Z,69.34
2019-05-21T05:32:46.155Z,69.06
2019-05-21T05:35:11.221Z,71.15
2019-05-21T05:37:43.513Z,70.79
2019-05-21T05:40:01.887Z,69.77
2019-05-21T05:42:26.305Z,69.86
2019-05-21T05:44:50.848Z,70.71
2019-05-21T05:47:15.445Z,70.27
2019-05-21T05:49:41.547Z,70.79
2019-05-21T05:52:06.025Z,70.30
2019-05-21T05:54:30.598Z,71.99
2019-05-21T05:56:55.098Z,72.15
2019-05-21T05:59:19.720Z,72.30
2019-05-21T06:01:44.246Z,71.95
2019-05-21T06:04:08.741Z,71.75
2019-05-21T06:06:33.253Z,72.09
2019-05-21T06:08:57.736Z,71.27
2019-05-21T06:11:22.180Z,70.74
2019-05-21T06:13:46.662Z,72.90
2019-05-21T06:16:11.180Z,72.60
2019-05-21T06:18:35.927Z,72.73
2019-05-21T06:21:00.453Z,72.16
2019-05-21T06:23:24.902Z,71.80
2019-05-21T06:25:49.439Z,73.00
2019-05-21T06:28:13.942Z,72.72
2019-05-21T06:30:38.583Z,74.21
2019-05-21T06:33:03.037Z,72.95
2019-05-21T06:35:27.601Z,73.24
2019-05-21T06:37:52.045Z,73.87
2019-05-21T06:40:16.661Z,72.24
2019-05-21T06:42:41.106Z,71.11
2019-05-21T06:45:07.074Z,70.80
2019-05-21T06:47:31.520Z,70.92
2019-05-21T06:49:56.073Z,70.11
2019-05-21T06:52:20.515Z,70.38
2019-05-21T06:54:45.109Z,71.11
2019-05-21T06:57:09.650Z,72.49
2019-05-21T06:59:34.243Z,72.03
2019-05-21T07:01:58.697Z,70.98
2019-05-21T07:04:23.181Z,71.16
2019-05-21T07:06:47.690Z,70.06
2019-05-21T07:09:12.201Z,70.61
2019-05-21T07:11:36.645Z,69.47
2019-05-21T07:14:01.111Z,69.77
2019-05-21T07:16:25.584Z,69.58
2019-05-21T07:18:50.062Z,69.64
2019-05-21T07:21:14.571Z,68.78
2019-05-21T07:23:39.148Z,68.46
2019-05-21T07:26:03.695Z,69.11
2019-05-21T07:28:28.458Z,68.36
2019-05-21T07:30:52.929Z,67.93
2019-05-21T07:33:17.384Z,68.51
2019-05-21T07:35:41.925Z,67.68
2019-05-21T07:38:06.520Z,69.30
2019-05-21T07:40:31.136Z,67.92
2019-05-21T07:42:55.600Z,67.75
2019-05-21T07:45:20.208Z,66.91
2019-05-21T07:47:44.659Z,66.84
2019-05-21T07:50:09.292Z,66.59
2019-05-21T07:52:33.815Z,66.33
2019-05-21T07:54:58.310Z,66.44
2019-05-21T07:57:22.751Z,68.12
2019-05-21T07:59:47.232Z,66.92
2019-05-21T08:02:11.751Z,66.21
2019-05-21T08:04:36.256Z,68.79
2019-05-21T08:07:00.920Z,68.65
2019-05-21T08:09:25.312Z,70.04
2019-05-21T08:11:49.819Z,68.73
2019-05-21T08:14:14.373Z,66.37
2019-05-21T08:16:38.956Z,66.94
2019-05-21T08:19:03.407Z,68.18
2019-05-21T08:21:27.922Z,67.78
2019-05-21T08:23:52.367Z,68.15
2019-05-21T08:26:16.849Z,65.80
2019-05-21T08:28:41.302Z,66.75
2019-05-21T08:31:05.939Z,67.65
2019-05-21T08:33:30.426Z,68.69
2019-05-21T08:35:54.972Z,68.54
2019-05-21T08:38:19.553Z,67.29
2019-05-21T08:40:44.166Z,67.15
2019-05-21T08:43:08.726Z,67.42
2019-05-21T08:45:33.296Z,66.32
2019-05-21T08:47:57.893Z,66.02
2019-05-21T08:50:22.439Z,64.65
2019-05-21T08:52:46.875Z,65.04
2019-05-21T08:55:11.451Z,64.65
2019-05-21T08:57:36.072Z,63.84
2019-05-21T09:00:00.592Z,63.54
2019-05-21T09:02:25.944Z,61.24
2019-05-21T09:04:50.535Z,66.53
2019-05-21T09:07:15.251Z,63.48
2019-05-21T09:09:50.259Z,63.94
2019-05-21T09:12:06.135Z,61.45
2019-05-21T09:14:30.674Z,62.05
2019-05-21T09:16:55.152Z,62.24
2019-05-21T09:19:19.604Z,61.19
2019-05-21T09:21:44.083Z,64.51
2019-05-21T09:24:08.702Z,65.61
2019-05-21T09:26:33.252Z,63.89
2019-05-21T09:28:57.729Z,65.23
2019-05-21T09:31:22.295Z,65.15
2019-05-21T09:33:46.812Z,68.24
2019-05-21T09:36:11.286Z,66.04
2019-05-21T09:38:35.812Z,68.31
2019-05-21T09:41:00.489Z,68.99
2019-05-21T09:43:25.007Z,66.29
2019-05-21T09:45:49.468Z,66.98
2019-05-21T09:48:14.049Z,66.47
2019-05-21T09:50:38.650Z,67.62
2019-05-21T09:53:03.184Z,67.09
2019-05-21T09:55:27.748Z,68.37
2019-05-21T09:57:53.976Z,66.12
2019-05-21T10:00:20.805Z,66.80
2019-05-21T10:02:45.430Z,65.88
2019-05-21T10:05:10.120Z,66.85
2019-05-21T10:07:39.828Z,63.43
2019-05-21T10:10:00.905Z,67.91
2019-05-21T10:12:25.439Z,66.35
2019-05-21T10:14:49.883Z,66.84
2019-05-21T10:17:14.391Z,67.20
2019-05-21T10:19:38.997Z,65.40
2019-05-21T10:22:03.955Z,66.87
2019-05-21T10:24:28.656Z,67.35
2019-05-21T10:26:53.296Z,65.49
2019-05-21T10:29:17.755Z,65.51
2019-05-21T10:31:42.249Z,64.95
2019-05-21T10:34:06.676Z,66.40
2019-05-21T10:36:31.279Z,64.84
2019-05-21T10:38:55.912Z,65.19
2019-05-21T10:41:20.377Z,65.94
2019-05-21T10:43:44.973Z,66.77
2019-05-21T10:46:09.803Z,66.13
2019-05-21T10:48:34.343Z,65.81
2019-05-21T10:50:58.901Z,63.83
2019-05-21T10:53:23.587Z,63.74
2019-05-21T10:55:48.043Z,64.65
2019-05-21T10:58:12.753Z,64.61
2019-05-21T11:00:37.827Z,64.76
2019-05-21T11:03:09.717Z,65.46
2019-05-21T11:05:36.062Z,64.68
2019-05-21T11:08:22.150Z,65.40
2019-05-21T11:10:26.959Z,65.66
2019-05-21T11:12:51.572Z,64.62
2019-05-21T11:15:17.924Z,66.66
2019-05-21T11:17:59.046Z,65.44
2019-05-21T11:20:09.099Z,65.15
2019-05-21T11:22:33.599Z,63.08
2019-05-21T11:24:58.060Z,63.29
2019-05-21T11:27:22.613Z,61.94
2019-05-21T11:29:47.088Z,63.28
2019-05-21T11:32:11.691Z,64.75
2019-05-21T11:34:36.308Z,63.16
2019-05-21T11:37:00.899Z,64.51
2019-05-21T11:39:25.369Z,64.54
2019-05-21T11:41:51.778Z,63.31
2019-05-21T11:44:16.400Z,62.05
2019-05-21T11:46:40.862Z,61.62
2019-05-21T11:49:05.562Z,61.62
2019-05-21T11:51:30.208Z,63.67
2019-05-21T11:53:54.683Z,64.02
2019-05-21T11:56:19.273Z,61.68
2019-05-21T11:58:43.750Z,61.45
2019-05-21T12:01:08.330Z,61.77
2019-05-21T12:03:32.794Z,59.80
2019-05-21T12:05:57.231Z,59.67
2019-05-21T12:08:21.685Z,58.68
2019-05-21T12:10:46.614Z,61.31
2019-05-21T12:13:11.198Z,60.69
2019-05-21T12:15:35.737Z,59.88
2019-05-21T12:18:00.249Z,59.07
2019-05-21T12:20:36.141Z,59.91
2019-05-21T12:22:51.847Z,62.86
2019-05-21T12:25:16.468Z,62.81
2019-05-21T12:27:41.073Z,61.15
2019-05-21T12:30:08.030Z,60.39
2019-05-21T12:32:32.556Z,62.48
2019-05-21T12:34:57.102Z,61.27
2019-05-21T12:37:21.682Z,61.27
2019-05-21T12:39:46.296Z,61.74
2019-05-21T12:42:10.750Z,61.99
2019-05-21T12:44:35.203Z,60.72
2019-05-21T12:46:59.724Z,60.42
2019-05-21T12:49:24.517Z,61.42
2019-05-21T12:51:48.959Z,59.95
2019-05-21T12:54:13.424Z,60.05
2019-05-21T12:56:40.798Z,61.28
2019-05-21T12:59:04.185Z,59.93
2019-05-21T13:01:28.706Z,58.83
2019-05-21T13:03:55.407Z,59.78
2019-05-21T13:06:19.372Z,58.45
2019-05-21T13:08:43.932Z,58.03
2019-05-21T13:11:08.622Z,60.54
2019-05-21T13:13:33.130Z,59.27
2019-05-21T13:15:57.676Z,61.38
2019-05-21T13:18:22.198Z,59.31
2019-05-21T13:20:46.810Z,59.65
2019-05-21T13:23:11.522Z,59.80
2019-05-21T13:25:36.803Z,60.22
2019-05-21T13:28:01.386Z,60.22
2019-05-21T13:30:25.997Z,63.17
2019-05-21T13:32:50.544Z,63.04
2019-05-21T13:35:15.326Z,62.94
2019-05-21T13:37:40.010Z,64.88
2019-05-21T13:40:07.865Z,62.46
2019-05-21T13:42:32.290Z,63.04
2019-05-21T13:44:57.022Z,62.33
2019-05-21T13:47:21.814Z,63.72
2019-05-21T13:49:46.258Z,62.82
2019-05-21T13:52:10.903Z,64.62
2019-05-21T13:54:35.375Z,66.94
2019-05-21T13:57:00.014Z,63.53
2019-05-21T13:59:24.781Z,64.02
2019-05-21T14:01:49.259Z,65.03
2019-05-21T14:04:14.395Z,64.88
2019-05-21T14:06:38.950Z,62.87
2019-05-21T14:09:04.711Z,63.42
2019-05-21T14:11:29.634Z,64.64
2019-05-21T14:13:54.211Z,68.53
2019-05-21T14:16:18.672Z,65.82
2019-05-21T14:18:43.191Z,64.05
2019-05-21T14:21:07.787Z,64.34
2019-05-21T14:23:32.237Z,64.14
2019-05-21T14:25:56.748Z,64.21
2019-05-21T14:28:21.425Z,63.96
2019-05-21T14:30:46.100Z,64.15
2019-05-21T14:33:10.585Z,64.37
2019-05-21T14:35:35.318Z,65.93
2019-05-21T14:37:59.896Z,69.86
2019-05-21T14:40:31.579Z,68.04
2019-05-21T14:42:59.679Z,69.40
2019-05-21T14:45:17.856Z,68.41
2019-05-21T14:47:42.421Z,68.69
2019-05-21T14:50:08.892Z,69.54
2019-05-21T14:52:33.420Z,68.20
2019-05-21T14:54:57.999Z,67.79
2019-05-21T14:57:22.536Z,68.78
2019-05-21T14:59:47.073Z,66.85
2019-05-21T15:02:11.616Z,65.56
2019-05-21T15:04:36.534Z,66.06
2019-05-21T15:07:01.193Z,67.11
2019-05-21T15:09:25.743Z,66.04
2019-05-21T15:11:51.841Z,63.78
2019-05-21T15:14:16.365Z,64.88
2019-05-21T15:16:40.917Z,67.57
2019-05-21T15:19:05.549Z,67.50
2019-05-21T15:21:31.699Z,68.77
2019-05-21T15:23:56.413Z,70.04
2019-05-21T15:26:20.986Z,70.80
2019-05-21T15:28:45.516Z,69.81
2019-05-21T15:31:10.140Z,71.88
2019-05-21T15:33:34.610Z,69.07
2019-05-21T15:35:59.070Z,68.18
2019-05-21T15:38:23.554Z,70.36
2019-05-21T15:41:06.575Z,70.57
2019-05-21T15:43:14.366Z,71.25
2019-05-21T15:45:38.861Z,69.45
2019-05-21T15:48:03.420Z,71.13
2019-05-21T15:50:27.931Z,71.36
2019-05-21T15:52:52.401Z,71.40
2019-05-21T15:55:18.392Z,73.02
2019-05-21T15:57:42.896Z,71.46
2019-05-21T16:00:09.903Z,73.59
2019-05-21T16:02:34.360Z,73.11
2019-05-21T16:04:58.863Z,72.72
2019-05-21T16:07:23.323Z,72.42
2019-05-21T16:09:47.807Z,71.39
2019-05-21T16:12:12.361Z,72.14
2019-05-21T16:14:36.920Z,73.10
2019-05-21T16:17:01.474Z,72.89
2019-05-21T16:19:26.019Z,74.07
2019-05-21T16:21:50.581Z,73.76
2019-05-21T16:24:15.128Z,73.18
2019-05-21T16:26:39.605Z,70.62
2019-05-21T16:29:04.335Z,69.81
2019-05-21T16:31:29.048Z,72.23
2019-05-21T16:33:53.540Z,72.94
2019-05-21T16:36:18.075Z,73.11
2019-05-21T16:38:42.557Z,71.40
2019-05-21T16:41:07.146Z,72.27
2019-05-21T16:43:31.707Z,72.21
2019-05-21T16:45:56.158Z,72.32
2019-05-21T16:48:20.659Z,75.70
2019-05-21T16:50:45.273Z,74.53
2019-05-21T16:53:09.711Z,74.79
2019-05-21T16:55:35.858Z,76.74
2019-05-21T16:58:00.489Z,77.65
2019-05-21T17:00:25.759Z,77.76
2019-05-21T17:02:50.298Z,77.64
2019-05-21T17:05:15.315Z,76.44
2019-05-21T17:07:39.756Z,76.65
2019-05-21T17:10:08.451Z,74.85
2019-05-21T17:12:32.948Z,74.09
2019-05-21T17:14:57.437Z,72.56
2019-05-21T17:17:21.954Z,76.58
2019-05-21T17:19:46.500Z,75.53
2019-05-21T17:22:10.945Z,75.20
2019-05-21T17:24:35.439Z,75.60
2019-05-21T17:26:59.906Z,74.17
2019-05-21T17:29:24.392Z,72.24
2019-05-21T17:31:48.901Z,74.05
2019-05-21T17:34:13.497Z,76.15
2019-05-21T17:36:37.974Z,76.82
2019-05-21T17:39:02.749Z,75.67
2019-05-21T17:41:27.286Z,76.47
2019-05-21T17:43:51.906Z,75.86
2019-05-21T17:46:16.365Z,76.65
2019-05-21T17:48:40.933Z,77.89
2019-05-21T17:51:08.920Z,77.78
2019-05-21T17:53:31.916Z,75.58
2019-05-21T17:55:56.405Z,74.12
2019-05-21T17:58:21.235Z,75.36
2019-05-21T18:00:50.052Z,75.84
2019-05-21T18:03:14.785Z,77.25
2019-05-21T18:05:39.447Z,77.86
2019-05-21T18:08:04.643Z,78.45
2019-05-21T18:10:29.202Z,79.00
2019-05-21T18:12:53.737Z,79.18
2019-05-21T18:15:18.541Z,76.88
2019-05-21T18:17:43.306Z,75.95
2019-05-21T18:20:08.642Z,76.34
2019-05-21T18:22:33.200Z,75.31
2019-05-21T18:24:57.895Z,76.30
2019-05-21T18:27:22.722Z,75.71
2019-05-21T18:29:47.172Z,76.78
2019-05-21T18:32:11.821Z,75.11
2019-05-21T18:34:36.421Z,76.54
2019-05-21T18:37:01.045Z,76.58
2019-05-21T18:39:25.505Z,74.96
2019-05-21T18:41:50.102Z,74.10
2019-05-21T18:44:14.626Z,75.99
2019-05-21T18:46:39.090Z,76.50
2019-05-21T18:49:03.538Z,78.54
2019-05-21T18:51:28.031Z,76.28
2019-05-21T18:53:52.557Z,75.12
2019-05-21T18:56:17.101Z,75.33
2019-05-21T18:58:41.888Z,73.98
2019-05-21T19:01:06.751Z,72.34
2019-05-21T19:03:31.415Z,73.73
2019-05-21T19:05:56.001Z,73.60
2019-05-21T19:08:20.615Z,75.94
2019-05-21T19:10:45.275Z,75.86
2019-05-21T19:13:09.765Z,73.50
2019-05-21T19:15:34.374Z,75.99
2019-05-21T19:17:58.851Z,75.39
2019-05-21T19:20:23.388Z,74.08
2019-05-21T19:22:47.871Z,76.21
2019-05-21T19:25:12.582Z,74.96
2019-05-21T19:27:37.300Z,75.06
2019-05-21T19:30:01.933Z,74.40
2019-05-21T19:32:26.492Z,77.06
2019-05-21T19:34:50.982Z,76.55
2019-05-21T19:37:15.593Z,75.95
2019-05-21T19:39:40.442Z,77.32
2019-05-21T19:42:05.352Z,76.78
2019-05-21T19:44:29.884Z,77.21
2019-05-21T19:46:54.456Z,76.86
2019-05-21T19:49:18.915Z,77.23
2019-05-21T19:51:43.551Z,78.73
2019-05-21T19:54:08.027Z,78.75
2019-05-21T19:56:36.197Z,78.86
2019-05-21T19:58:58.913Z,78.67
2019-05-21T20:01:23.882Z,78.33
2019-05-21T20:03:48.455Z,79.50
2019-05-21T20:06:14.856Z,80.02
2019-05-21T20:08:39.391Z,79.23
2019-05-21T20:11:04.877Z,79.93
2019-05-21T20:13:32.500Z,78.79
2019-05-21T20:15:55.569Z,77.36
2019-05-21T20:18:20.436Z,76.58
2019-05-21T20:20:45.039Z,79.36
2019-05-21T20:23:10.566Z,78.59
2019-05-21T20:25:35.416Z,78.79
2019-05-21T20:28:00.557Z,80.34
2019-05-21T20:30:26.462Z,80.07
2019-05-21T20:32:51.898Z,80.60
2019-05-21T20:35:17.956Z,79.52
2019-05-21T20:37:44.132Z,79.24
2019-05-21T20:40:11.294Z,80.07
2019-05-21T20:42:35.907Z,79.89
2019-05-21T20:45:00.555Z,79.52
2019-05-21T20:47:25.278Z,78.90
2019-05-21T20:49:50.760Z,79.11
2019-05-21T20:52:18.836Z,78.17
2019-05-21T20:54:44.312Z,78.46
2019-05-21T20:57:10.455Z,77.46
2019-05-21T20:59:35.098Z,77.04
2019-05-21T21:01:59.920Z,78.22
2019-05-21T21:04:24.742Z,78.76
2019-05-21T21:06:49.778Z,79.31
2019-05-21T21:09:14.498Z,78.75
2019-05-21T21:11:40.117Z,78.83
2019-05-21T21:14:17.451Z,81.14
2019-05-21T21:16:33.823Z,80.81
2019-05-21T21:18:58.530Z,81.72
2019-05-21T21:21:23.304Z,81.09
2019-05-21T21:23:49.946Z,81.47
2019-05-21T21:26:15.045Z,82.04
2019-05-21T21:28:39.677Z,80.30
2019-05-21T21:31:06.081Z,79.82
2019-05-21T21:33:30.641Z,79.50
2019-05-21T21:35:55.236Z,79.91
2019-05-21T21:38:24.723Z,79.00
2019-05-21T21:40:49.723Z,79.04
2019-05-21T21:43:14.261Z,81.05
2019-05-21T21:45:38.891Z,79.72
2019-05-21T21:48:03.485Z,78.35
2019-05-21T21:50:28.423Z,77.95
2019-05-21T21:52:54.341Z,77.22
2019-05-21T21:55:18.980Z,78.17
2019-05-21T21:57:43.509Z,80.19
2019-05-21T22:00:27.799Z,81.22
2019-05-21T22:02:52.415Z,81.01
2019-05-21T22:05:18.189Z,81.30
2019-05-21T22:07:43.399Z,80.07
2019-05-21T22:10:08.478Z,78.84
2019-05-21T22:12:33.079Z,81.29
2019-05-21T22:15:00.287Z,81.73
2019-05-21T22:17:25.373Z,81.25
2019-05-21T22:19:50.036Z,80.77
2019-05-21T22:22:14.643Z,80.26
2019-05-21T22:24:39.267Z,78.99
2019-05-21T22:27:03.870Z,79.33
2019-05-21T22:29:28.515Z,81.21
2019-05-21T22:31:53.123Z,80.93
2019-05-21T22:34:18.253Z,81.84
2019-05-21T22:36:42.925Z,81.64
2019-05-21T22:39:09.500Z,81.51
2019-05-21T22:41:33.983Z,81.42
2019-05-21T22:43:58.513Z,82.93
2019-05-21T22:46:23.121Z,83.08
2019-05-21T22:48:47.648Z,81.19
2019-05-21T22:51:12.386Z,80.77
2019-05-21T22:53:36.887Z,80.21
2019-05-21T22:56:01.355Z,81.05
2019-05-21T22:58:25.834Z,78.62
2019-05-21T23:00:51.354Z,78.16
2019-05-21T23:03:15.874Z,78.89
2019-05-21T23:05:40.522Z,77.46
2019-05-21T23:08:05.680Z,78.57
2019-05-21T23:10:30.646Z,79.45
2019-05-21T23:12:55.354Z,80.83
2019-05-21T23:15:25.096Z,81.38
2019-05-21T23:17:46.452Z,82.25
2019-05-21T23:20:13.435Z,82.40
2019-05-21T23:22:38.333Z,82.52
2019-05-21T23:25:03.462Z,81.97
2019-05-21T23:27:28.465Z,83.13
2019-05-21T23:29:53.384Z,82.72
2019-05-21T23:32:19.724Z,83.65
2019-05-21T23:34:45.147Z,84.52
2019-05-21T23:37:11.379Z,84.84
2019-05-21T23:39:37.744Z,85.14
2019-05-21T23:42:02.843Z,84.97
2019-05-21T23:44:27.548Z,84.75
2019-05-21T23:46:52.451Z,84.81
2019-05-21T23:49:16.992Z,85.00
2019-05-21T23:51:41.623Z,84.76
2019-05-21T23:54:08.991Z,85.38
2019-05-21T23:56:39.574Z,85.36
2019-05-21T23:59:04.879Z,85.99
